createdAt,value
2022-09-02T00:01:32.754Z,16.40
2022-09-02T00:04:07.458Z,16.30
2022-09-02T00:06:35.086Z,16.30
2022-09-02T00:09:05.246Z,16.20
2022-09-02T00:11:34.093Z,16.20
2022-09-02T00:14:04.394Z,16.10
2022-09-02T00:16:32.237Z,16.10
2022-09-02T00:19:01.066Z,16.10
2022-09-02T00:21:28.887Z,16.00
2022-09-02T00:23:56.136Z,16.00
2022-09-02T00:26:23.357Z,16.00
2022-09-02T00:28:56.262Z,15.90
2022-09-02T00:31:25.428Z,15.90
2022-09-02T00:33:52.822Z,15.80
2022-09-02T00:36:20.599Z,15.80
2022-09-02T00:38:48.438Z,15.80
2022-09-02T00:41:15.957Z,15.80
2022-09-02T00:43:52.465Z,15.70
2022-09-02T00:46:22.018Z,15.70
2022-09-02T00:49:01.274Z,15.70
2022-09-02T00:51:32.989Z,15.70
2022-09-02T00:54:00.998Z,15.70
2022-09-02T00:56:30.700Z,15.70
2022-09-02T00:58:59.473Z,15.80
2022-09-02T01:01:27.173Z,15.70
2022-09-02T01:03:54.573Z,15.70
2022-09-02T01:06:25.119Z,15.80
2022-09-02T01:08:57.938Z,15.80
2022-09-02T01:11:29.787Z,15.80
2022-09-02T01:13:57.041Z,15.80
2022-09-02T01:16:28.785Z,15.80
2022-09-02T01:18:59.703Z,15.80
2022-09-02T01:21:27.142Z,15.80
2022-09-02T01:23:54.673Z,15.80
2022-09-02T01:26:21.857Z,15.90
2022-09-02T01:28:49.095Z,15.90
2022-09-02T01:31:16.406Z,15.90
2022-09-02T01:33:43.663Z,15.90
2022-09-02T01:36:12.790Z,15.90
2022-09-02T01:38:39.989Z,15.90
2022-09-02T01:41:07.158Z,16.00
2022-09-02T01:43:34.369Z,16.00
2022-09-02T01:46:02.683Z,16.00
2022-09-02T01:48:29.961Z,16.00
2022-09-02T01:51:01.232Z,16.00
2022-09-02T01:53:29.928Z,16.00
2022-09-02T01:55:57.364Z,16.00
2022-09-02T01:58:24.810Z,16.00
2022-09-02T02:00:52.365Z,16.00
2022-09-02T02:03:20.642Z,16.00
2022-09-02T02:05:48.222Z,16.00
2022-09-02T02:08:15.450Z,16.00
2022-09-02T02:10:43.068Z,16.00
2022-09-02T02:13:10.670Z,16.00
2022-09-02T02:15:39.690Z,16.00
2022-09-02T02:18:07.846Z,16.00
2022-09-02T02:20:35.647Z,16.00
2022-09-02T02:23:03.822Z,16.00
2022-09-02T02:25:31.263Z,16.00
2022-09-02T02:27:59.072Z,16.10
2022-09-02T02:30:26.314Z,16.10
2022-09-02T02:32:53.606Z,16.10
2022-09-02T02:35:21.343Z,16.10
2022-09-02T02:37:49.468Z,16.10
2022-09-02T02:40:19.691Z,16.10
2022-09-02T02:42:47.552Z,16.10
2022-09-02T02:45:16.468Z,16.10
2022-09-02T02:47:44.087Z,16.10
2022-09-02T02:50:13.766Z,16.10
2022-09-02T02:52:41.965Z,16.10
2022-09-02T02:55:10.807Z,16.10
2022-09-02T02:57:39.667Z,16.10
2022-09-02T03:00:08.762Z,16.20
2022-09-02T03:02:36.141Z,16.20
2022-09-02T03:05:06.037Z,16.20
2022-09-02T03:07:33.582Z,16.20
2022-09-02T03:10:02.210Z,16.20
2022-09-02T03:12:29.754Z,16.20
2022-09-02T03:14:56.911Z,16.30
2022-09-02T03:17:24.153Z,16.20
2022-09-02T03:19:51.328Z,16.30
2022-09-02T03:22:18.762Z,16.30
2022-09-02T03:24:46.269Z,16.30
2022-09-02T03:27:13.535Z,16.40
2022-09-02T03:29:40.829Z,16.40
2022-09-02T03:32:08.034Z,16.40
2022-09-02T03:34:35.317Z,16.40
2022-09-02T03:37:02.662Z,16.30
2022-09-02T03:39:29.835Z,16.30
2022-09-02T03:41:57.087Z,16.30
2022-09-02T03:44:24.254Z,16.30
2022-09-02T03:46:51.465Z,16.30
2022-09-02T03:49:18.629Z,16.30
2022-09-02T03:51:45.943Z,16.30
2022-09-02T03:54:13.163Z,16.20
2022-09-02T03:56:40.490Z,16.30
2022-09-02T03:59:07.697Z,16.20
2022-09-02T04:01:35.995Z,16.20
2022-09-02T04:04:05.574Z,16.10
2022-09-02T04:06:33.037Z,16.10
2022-09-02T04:09:00.775Z,16.10
2022-09-02T04:11:28.165Z,16.10
2022-09-02T04:13:55.337Z,16.20
2022-09-02T04:17:02.041Z,16.20
2022-09-02T04:20:25.482Z,16.20
2022-09-02T04:23:11.402Z,16.20
2022-09-02T04:25:41.670Z,16.30
2022-09-02T04:28:09.740Z,16.30
2022-09-02T04:30:42.329Z,16.40
2022-09-02T04:33:09.817Z,16.30
2022-09-02T04:35:44.448Z,16.40
2022-09-02T04:38:13.391Z,16.30
2022-09-02T04:40:42.367Z,16.30
2022-09-02T04:43:10.026Z,16.30
2022-09-02T04:45:41.047Z,16.40
2022-09-02T04:48:08.359Z,16.30
2022-09-02T04:50:38.137Z,16.30
2022-09-02T04:53:05.868Z,16.30
2022-09-02T04:55:33.675Z,16.30
2022-09-02T04:58:00.977Z,16.20
2022-09-02T05:00:28.117Z,16.30
2022-09-02T05:02:55.679Z,16.30
2022-09-02T05:05:23.420Z,16.30
2022-09-02T05:07:50.732Z,16.30
2022-09-02T05:10:17.973Z,16.40
2022-09-02T05:12:45.128Z,16.50
2022-09-02T05:15:13.300Z,16.60
2022-09-02T05:17:40.591Z,16.70
2022-09-02T05:20:09.608Z,17.00
2022-09-02T05:22:37.565Z,17.50
2022-09-02T05:25:06.361Z,17.50
2022-09-02T05:27:33.576Z,17.40
2022-09-02T05:30:00.994Z,17.50
2022-09-02T05:32:28.247Z,17.80
2022-09-02T05:34:55.875Z,17.70
2022-09-02T05:37:23.976Z,17.80
2022-09-02T05:39:51.963Z,17.90
2022-09-02T05:42:19.175Z,17.90
2022-09-02T05:44:47.193Z,18.00
2022-09-02T05:47:14.711Z,18.00
2022-09-02T05:49:42.045Z,18.00
2022-09-02T05:52:09.441Z,18.00
2022-09-02T05:54:38.747Z,18.00
2022-09-02T05:57:13.034Z,18.00
2022-09-02T05:59:41.800Z,18.00
2022-09-02T06:02:11.157Z,18.00
2022-09-02T06:04:45.406Z,18.00
2022-09-02T06:07:14.333Z,18.10
2022-09-02T06:09:42.061Z,18.10
2022-09-02T06:12:09.268Z,18.20
2022-09-02T06:14:36.499Z,18.30
2022-09-02T06:17:04.915Z,18.40
2022-09-02T06:19:32.533Z,18.50
2022-09-02T06:22:01.600Z,18.40
2022-09-02T06:24:30.605Z,18.50
2022-09-02T06:26:59.176Z,18.50
2022-09-02T06:29:26.778Z,18.50
2022-09-02T06:31:54.733Z,18.50
2022-09-02T06:34:23.254Z,18.50
2022-09-02T06:36:50.518Z,18.60
2022-09-02T06:39:21.328Z,18.70
2022-09-02T06:41:48.897Z,18.80
2022-09-02T06:44:17.776Z,18.90
2022-09-02T06:46:48.457Z,19.10
2022-09-02T06:49:20.059Z,19.20
2022-09-02T06:51:49.089Z,19.30
2022-09-02T06:54:18.589Z,19.50
2022-09-02T06:56:49.758Z,19.50
2022-09-02T06:59:21.234Z,19.60
2022-09-02T07:01:49.524Z,19.80
2022-09-02T07:04:18.025Z,19.90
2022-09-02T07:06:49.299Z,20.00
2022-09-02T07:09:20.438Z,20.20
2022-09-02T07:11:49.328Z,20.40
2022-09-02T07:14:19.673Z,20.50
2022-09-02T07:16:50.380Z,20.60
2022-09-02T07:19:20.808Z,20.70
2022-09-02T07:21:49.311Z,20.90
2022-09-02T07:24:17.550Z,21.20
2022-09-02T07:26:44.886Z,21.20
2022-09-02T07:29:12.536Z,21.30
2022-09-02T07:31:43.373Z,21.50
2022-09-02T07:34:12.500Z,21.60
2022-09-02T07:36:39.923Z,21.60
2022-09-02T07:39:12.091Z,21.70
2022-09-02T07:41:40.651Z,22.10
2022-09-02T07:44:08.429Z,22.10
2022-09-02T07:46:37.048Z,22.10
2022-09-02T07:49:09.228Z,22.20
2022-09-02T07:51:40.337Z,22.10
2022-09-02T07:54:09.858Z,22.10
2022-09-02T07:56:37.203Z,22.10
2022-09-02T07:59:04.732Z,22.10
2022-09-02T08:01:32.823Z,22.20
2022-09-02T08:04:02.816Z,22.20
2022-09-02T08:06:34.517Z,22.20
2022-09-02T08:09:07.071Z,22.10
2022-09-02T08:11:34.450Z,22.00
2022-09-02T08:14:01.918Z,21.80
2022-09-02T08:16:29.245Z,22.10
2022-09-02T08:18:56.719Z,22.20
2022-09-02T08:21:23.908Z,22.20
2022-09-02T08:23:51.124Z,22.30
2022-09-02T08:26:18.496Z,22.40
2022-09-02T08:28:45.712Z,22.30
2022-09-02T08:31:12.985Z,22.20
2022-09-02T08:33:40.364Z,22.30
2022-09-02T08:36:09.710Z,22.30
2022-09-02T08:38:36.984Z,22.50
2022-09-02T08:41:19.918Z,22.50
2022-09-02T08:43:47.556Z,22.40
2022-09-02T08:46:17.021Z,22.40
2022-09-02T08:48:46.970Z,22.40
2022-09-02T08:51:38.923Z,22.50
2022-09-02T08:54:16.105Z,22.40
2022-09-02T08:56:43.415Z,22.90
2022-09-02T08:59:10.976Z,23.10
2022-09-02T09:02:00.965Z,23.30
2022-09-02T09:04:53.305Z,23.50
2022-09-02T09:07:53.474Z,23.20
2022-09-02T09:10:33.915Z,23.30
2022-09-02T09:13:30.270Z,23.20
2022-09-02T09:16:14.644Z,23.40
2022-09-02T09:18:54.319Z,23.40
2022-09-02T09:23:55.338Z,23.60
2022-09-02T09:26:29.231Z,23.90
2022-09-02T09:28:56.489Z,24.10
2022-09-02T09:31:28.672Z,24.30
2022-09-02T09:33:56.745Z,24.40
2022-09-02T09:36:44.950Z,24.20
2022-09-02T09:39:31.240Z,24.30
2022-09-02T09:42:01.089Z,24.50
2022-09-02T09:44:48.306Z,24.70
2022-09-02T09:47:20.484Z,24.80
2022-09-02T09:49:50.448Z,24.90
2022-09-02T09:52:25.819Z,25.00
2022-09-02T10:42:35.611Z,26.40
2022-09-02T10:45:20.805Z,26.70
2022-09-02T10:48:00.007Z,26.80
2022-09-02T10:50:52.961Z,27.30
2022-09-02T10:53:33.438Z,27.70
2022-09-02T10:56:07.356Z,27.70
2022-09-02T10:59:06.862Z,27.50
2022-09-02T11:01:44.989Z,27.80
2022-09-02T11:04:45.833Z,27.50
2022-09-02T11:07:28.352Z,27.80
2022-09-02T11:10:05.555Z,28.30
2022-09-02T11:12:37.911Z,28.90
2022-09-02T11:15:29.550Z,28.90
2022-09-02T11:18:12.006Z,29.10
2022-09-02T11:20:57.124Z,28.50
2022-09-02T11:23:49.738Z,28.50
2022-09-02T11:26:25.020Z,28.30
2022-09-02T11:29:04.967Z,28.10
2022-09-02T11:31:51.876Z,28.20
2022-09-02T11:34:19.165Z,28.10
2022-09-02T11:36:46.626Z,28.20
2022-09-02T11:39:36.527Z,27.70
2022-09-02T11:42:35.777Z,28.20
2022-09-02T11:45:12.961Z,28.60
2022-09-02T11:47:50.166Z,28.60
2022-09-02T11:50:27.578Z,28.40
2022-09-02T11:53:13.020Z,28.10
2022-09-02T11:55:47.484Z,28.10
2022-09-02T11:58:34.451Z,28.40
2022-09-02T12:01:25.556Z,28.40
2022-09-02T12:07:07.313Z,27.30
2022-09-02T12:09:52.056Z,26.80
2022-09-02T12:12:58.102Z,27.30
2022-09-02T12:15:25.362Z,27.40
2022-09-02T12:17:53.020Z,27.30
2022-09-02T12:20:51.163Z,27.40
2022-09-02T12:23:49.572Z,27.50
2022-09-02T12:26:19.001Z,27.80
2022-09-02T12:28:48.181Z,28.20
2022-09-02T12:31:18.152Z,28.40
2022-09-02T12:33:50.514Z,28.60
2022-09-02T12:36:36.403Z,28.70
2022-09-02T12:39:25.686Z,28.10
2022-09-02T12:42:07.730Z,28.00
2022-09-02T12:44:43.866Z,27.60
2022-09-02T12:47:20.436Z,27.30
2022-09-02T12:50:00.985Z,27.40
2022-09-02T12:52:47.057Z,27.10
2022-09-02T12:55:22.898Z,27.40
2022-09-02T12:57:52.750Z,27.50
2022-09-02T13:00:39.745Z,27.80
2022-09-02T13:03:14.108Z,27.70
2022-09-02T13:06:03.101Z,27.40
2022-09-02T13:08:54.606Z,27.80
2022-09-02T13:11:52.466Z,27.70
2022-09-02T13:14:50.168Z,27.40
2022-09-02T13:17:59.820Z,27.10
2022-09-02T13:20:56.331Z,27.00
2022-09-02T13:23:35.963Z,27.00
2022-09-02T13:26:47.993Z,27.10
2022-09-02T13:29:35.024Z,27.10
2022-09-02T13:32:22.529Z,26.60
2022-09-02T13:34:52.855Z,26.90
2022-09-02T13:37:43.546Z,27.10
2022-09-02T13:40:26.478Z,27.10
2022-09-02T13:42:58.789Z,27.40
2022-09-02T13:45:27.994Z,27.50
2022-09-02T13:47:58.910Z,27.90
2022-09-02T13:50:32.609Z,28.10
2022-09-02T13:55:57.996Z,28.40
2022-09-02T13:58:41.123Z,28.50
2022-09-02T14:01:33.135Z,28.30
2022-09-02T14:04:09.493Z,28.40
2022-09-02T14:06:42.075Z,28.40
2022-09-02T14:09:19.971Z,28.60
2022-09-02T14:11:48.974Z,28.70
2022-09-02T14:14:18.521Z,28.60
2022-09-02T14:16:45.748Z,28.20
2022-09-02T14:19:21.922Z,27.90
2022-09-02T14:21:58.224Z,27.60
2022-09-02T14:24:28.904Z,27.60
2022-09-02T14:27:00.402Z,27.50
2022-09-02T14:29:30.023Z,27.40
2022-09-02T14:32:12.006Z,27.30
2022-09-02T14:34:41.011Z,27.30
2022-09-02T14:37:20.385Z,27.10
2022-09-02T14:40:07.014Z,26.80
2022-09-02T14:42:42.995Z,27.20
2022-09-02T14:45:11.933Z,27.40
2022-09-02T14:47:40.181Z,27.30
2022-09-02T14:50:12.655Z,27.10
2022-09-02T14:52:49.715Z,27.30
2022-09-02T14:55:45.875Z,27.30
2022-09-02T14:58:14.507Z,27.50
2022-09-02T15:00:43.865Z,27.60
2022-09-02T15:03:14.913Z,27.70
2022-09-02T15:05:42.775Z,27.60
2022-09-02T15:08:10.690Z,27.70
2022-09-02T15:10:39.289Z,27.60
2022-09-02T15:13:26.820Z,27.70
2022-09-02T15:15:54.441Z,27.70
2022-09-02T15:18:23.181Z,27.70
2022-09-02T15:20:50.703Z,27.50
2022-09-02T15:23:18.345Z,27.70
2022-09-02T15:25:45.748Z,27.70
2022-09-02T15:28:13.460Z,27.60
2022-09-02T15:30:40.807Z,27.60
2022-09-02T15:33:09.206Z,27.70
2022-09-02T15:35:43.942Z,27.60
2022-09-02T15:38:11.114Z,27.30
2022-09-02T15:40:38.369Z,27.10
2022-09-02T15:43:05.644Z,27.20
2022-09-02T15:45:32.873Z,27.20
2022-09-02T15:48:00.035Z,27.00
2022-09-02T15:50:31.602Z,27.20
2022-09-02T15:52:58.803Z,27.20
2022-09-02T15:55:29.529Z,27.20
2022-09-02T15:57:57.168Z,26.90
2022-09-02T16:00:26.787Z,27.10
2022-09-02T16:02:55.497Z,27.00
2022-09-02T16:05:22.766Z,26.90
2022-09-02T16:07:50.060Z,27.00
2022-09-02T16:10:17.317Z,27.00
2022-09-02T16:12:44.567Z,26.90
2022-09-02T16:15:11.769Z,26.70
2022-09-02T16:17:38.959Z,26.70
2022-09-02T16:20:06.498Z,26.60
2022-09-02T16:22:33.777Z,26.70
2022-09-02T16:25:02.290Z,26.70
2022-09-02T16:27:29.520Z,26.70
2022-09-02T16:29:56.741Z,26.40
2022-09-02T16:32:26.666Z,26.40
2022-09-02T16:34:55.238Z,26.20
2022-09-02T16:37:22.433Z,26.10
2022-09-02T16:39:49.762Z,26.20
2022-09-02T16:42:16.962Z,26.10
2022-09-02T16:44:44.197Z,26.00
2022-09-02T16:47:12.813Z,26.20
2022-09-02T16:49:41.211Z,26.20
2022-09-02T16:52:08.471Z,26.20
2022-09-02T16:54:38.722Z,26.10
2022-09-02T16:57:08.420Z,26.10
2022-09-02T16:59:35.728Z,26.10
2022-09-02T17:02:03.108Z,26.10
2022-09-02T17:04:30.365Z,26.00
2022-09-02T17:07:00.539Z,25.90
2022-09-02T17:09:27.824Z,25.90
2022-09-02T17:11:55.031Z,25.90
2022-09-02T17:14:22.273Z,25.90
2022-09-02T17:16:51.291Z,25.80
2022-09-02T17:19:19.985Z,25.70
2022-09-02T17:21:52.026Z,25.50
2022-09-02T17:24:22.037Z,25.50
2022-09-02T17:26:51.121Z,25.40
2022-09-02T17:29:47.904Z,25.30
2022-09-02T17:32:11.062Z,25.30
2022-09-02T17:34:38.558Z,25.30
2022-09-02T17:37:06.234Z,25.30
2022-09-02T17:39:33.519Z,25.20
2022-09-02T17:42:01.379Z,25.10
2022-09-02T17:44:30.028Z,25.00
2022-09-02T17:46:58.962Z,24.90
2022-09-02T17:49:26.787Z,24.90
2022-09-02T17:51:54.013Z,24.80
2022-09-02T19:02:00.921Z,22.10
2022-09-02T19:04:29.784Z,22.00
2022-09-02T19:06:57.346Z,21.90
2022-09-02T19:09:26.085Z,21.80
2022-09-02T19:11:53.265Z,21.70
2022-09-02T19:14:28.567Z,21.60
2022-09-02T19:16:57.706Z,21.60
2022-09-02T19:19:25.610Z,21.50
2022-09-02T19:21:56.743Z,21.40
2022-09-02T19:24:28.191Z,21.40
2022-09-02T19:27:01.133Z,21.30
2022-09-02T19:29:28.994Z,21.20
2022-09-02T19:31:56.221Z,21.20
2022-09-02T19:34:25.585Z,21.10
2022-09-02T19:36:52.950Z,21.00
2022-09-02T19:39:20.266Z,21.00
2022-09-02T19:41:47.499Z,21.00
2022-09-02T19:44:14.798Z,20.90
2022-09-02T19:47:30.778Z,20.90
2022-09-02T19:49:29.484Z,20.80
2022-09-02T19:51:56.897Z,20.80
2022-09-02T19:54:24.151Z,20.70
2022-09-02T19:56:51.329Z,20.60
2022-09-02T19:59:18.518Z,20.60
2022-09-02T20:01:45.844Z,20.50
2022-09-02T20:04:13.188Z,20.40
2022-09-02T20:06:40.436Z,20.40
2022-09-02T20:11:37.176Z,20.10
2022-09-02T20:14:08.318Z,20.20
2022-09-02T20:16:35.621Z,20.10
2022-09-02T20:19:02.872Z,20.10
2022-09-02T20:21:42.622Z,20.10
2022-09-02T20:24:11.975Z,20.00
2022-09-02T20:26:53.587Z,20.00
2022-09-02T20:29:48.415Z,19.90
2022-09-02T20:32:21.341Z,19.90
2022-09-02T20:35:10.086Z,19.80
2022-09-02T20:37:56.104Z,19.80
2022-09-02T20:40:38.701Z,19.70
2022-09-02T20:43:51.567Z,19.70
2022-09-02T20:46:49.972Z,19.60
2022-09-02T20:49:17.110Z,19.50
2022-09-02T20:52:02.361Z,19.50
2022-09-02T20:54:54.659Z,19.50
2022-09-02T20:57:32.270Z,19.40
2022-09-02T21:00:06.571Z,19.40
2022-09-02T21:02:42.436Z,19.30
2022-09-02T21:05:22.873Z,19.20
2022-09-02T21:08:05.446Z,19.20
2022-09-02T21:10:37.859Z,19.10
2022-09-02T21:13:05.005Z,19.20
2022-09-02T21:15:52.051Z,19.10
2022-09-02T21:18:46.931Z,19.00
2022-09-02T21:21:14.100Z,18.90
2022-09-02T21:24:13.792Z,18.90
2022-09-02T21:27:04.613Z,18.90
2022-09-02T21:29:46.371Z,18.80
2022-09-02T21:32:38.751Z,18.80
2022-09-02T21:35:08.777Z,18.70
2022-09-02T21:37:39.159Z,18.60
2022-09-02T21:40:16.436Z,18.50
2022-09-02T21:42:49.331Z,18.50
2022-09-02T21:45:34.672Z,18.50
2022-09-02T21:48:33.857Z,18.30
2022-09-02T21:51:28.652Z,18.30
2022-09-02T21:54:22.104Z,18.30
2022-09-02T21:57:00.854Z,18.20
2022-09-02T22:00:05.998Z,18.20
2022-09-02T22:02:51.653Z,18.10
2022-09-02T22:05:31.187Z,18.00
2022-09-02T22:08:01.040Z,18.00
2022-09-02T22:10:34.367Z,17.90
2022-09-02T22:13:02.493Z,17.90
2022-09-02T22:15:52.319Z,17.80
2022-09-02T22:18:33.879Z,17.80
2022-09-02T22:21:08.270Z,17.70
2022-09-02T22:23:35.545Z,17.70
2022-09-02T22:26:14.336Z,17.70
2022-09-02T22:28:46.607Z,17.60
2022-09-02T22:31:18.440Z,17.60
2022-09-02T22:33:50.764Z,17.60
2022-09-02T22:36:51.892Z,17.50
2022-09-02T22:39:20.334Z,17.50
2022-09-02T22:41:53.014Z,17.50
2022-09-02T22:44:40.272Z,17.40
2022-09-02T22:47:09.502Z,17.40
2022-09-02T22:49:43.477Z,17.40
2022-09-02T22:52:22.547Z,17.30
2022-09-02T22:54:49.827Z,17.30
2022-09-02T22:57:44.532Z,17.20
2022-09-02T23:00:16.992Z,17.20
2022-09-02T23:03:02.283Z,17.20
2022-09-02T23:05:58.171Z,17.10
2022-09-02T23:08:25.490Z,17.10
2022-09-02T23:10:57.126Z,17.00
2022-09-02T23:13:48.251Z,17.00
2022-09-02T23:16:38.836Z,17.00
2022-09-02T23:19:32.443Z,16.90
2022-09-02T23:22:07.715Z,16.90
2022-09-02T23:24:37.913Z,16.80
2022-09-02T23:27:11.983Z,16.80
2022-09-02T23:29:41.440Z,16.80
2022-09-02T23:32:37.197Z,16.80
2022-09-02T23:35:07.674Z,16.80
2022-09-02T23:37:59.843Z,16.80
2022-09-02T23:40:42.589Z,16.80
2022-09-02T23:43:11.510Z,16.90
2022-09-02T23:45:38.663Z,16.90
2022-09-02T23:48:35.318Z,16.90
2022-09-02T23:51:24.299Z,17.00
2022-09-02T23:53:54.311Z,17.00
2022-09-02T23:56:39.968Z,17.00
2022-09-02T23:59:15.265Z,17.00
